createdAt,value
2017-12-16T00:02:23.436Z,98.30
2017-12-16T00:04:51.687Z,98.30
2017-12-16T00:07:19.944Z,98.40
2017-12-16T00:09:47.532Z,98.30
2017-12-16T00:12:15.804Z,98.40
2017-12-16T00:14:44.052Z,98.40
2017-12-16T00:17:11.553Z,98.40
2017-12-16T00:19:39.791Z,98.40
2017-12-16T00:22:07.286Z,98.40
2017-12-16T00:24:35.542Z,98.40
2017-12-16T00:27:03.046Z,98.40
2017-12-16T00:29:30.523Z,98.60
2017-12-16T00:31:58.024Z,98.30
2017-12-16T00:34:26.274Z,98.30
2017-12-16T00:36:53.768Z,98.30
2017-12-16T00:39:21.326Z,98.30
2017-12-16T00:41:50.213Z,98.30
2017-12-16T00:44:18.483Z,98.40
2017-12-16T00:46:46.765Z,98.30
2017-12-16T00:49:15.027Z,98.20
2017-12-16T00:51:42.511Z,98.20
2017-12-16T00:54:10.002Z,98.20
2017-12-16T00:56:37.503Z,98.20
2017-12-16T00:59:05.024Z,98.20
2017-12-16T01:01:32.543Z,98.40
2017-12-16T01:04:00.032Z,98.20
2017-12-16T01:06:27.533Z,98.20
2017-12-16T01:08:55.783Z,98.20
2017-12-16T01:11:23.283Z,98.20
2017-12-16T01:13:51.535Z,98.30
2017-12-16T01:16:19.831Z,98.30
2017-12-16T01:18:48.092Z,98.20
2017-12-16T01:21:17.092Z,98.20
2017-12-16T01:23:44.602Z,98.20
2017-12-16T01:26:12.111Z,98.30
2017-12-16T01:28:40.376Z,98.20
2017-12-16T01:31:07.864Z,98.20
2017-12-16T01:33:47.357Z,98.20
2017-12-16T01:36:26.851Z,98.30
2017-12-16T01:38:54.421Z,98.30
2017-12-16T01:41:21.948Z,98.30
2017-12-16T01:43:50.191Z,98.30
2017-12-16T01:46:17.686Z,98.30
2017-12-16T01:48:45.957Z,98.30
2017-12-16T01:51:14.216Z,98.30
2017-12-16T01:53:41.790Z,98.30
2017-12-16T01:56:10.221Z,98.30
2017-12-16T01:58:38.550Z,98.40
2017-12-16T02:01:06.835Z,98.30
2017-12-16T02:03:35.105Z,98.40
2017-12-16T02:06:03.368Z,98.30
2017-12-16T02:08:31.620Z,98.30
2017-12-16T02:10:59.112Z,98.30
2017-12-16T02:13:27.360Z,98.20
2017-12-16T02:15:54.951Z,98.20
2017-12-16T02:18:23.235Z,98.20
2017-12-16T02:20:51.499Z,98.20
2017-12-16T02:23:18.983Z,98.20
2017-12-16T02:25:46.477Z,98.20
2017-12-16T02:28:13.967Z,98.30
2017-12-16T02:30:42.233Z,98.50
2017-12-16T02:33:09.724Z,98.20
2017-12-16T02:35:37.985Z,98.30
2017-12-16T02:38:06.240Z,98.20
2017-12-16T02:40:33.739Z,98.20
2017-12-16T02:43:01.228Z,98.20
2017-12-16T02:45:28.733Z,98.20
2017-12-16T02:47:56.980Z,98.20
2017-12-16T02:50:24.489Z,98.20
2017-12-16T02:52:51.988Z,98.20
2017-12-16T02:55:19.483Z,98.20
2017-12-16T02:57:47.732Z,98.00
2017-12-16T03:00:15.829Z,98.00
2017-12-16T03:02:44.114Z,98.00
2017-12-16T03:05:11.678Z,98.00
2017-12-16T03:07:39.937Z,97.80
2017-12-16T03:10:08.187Z,97.90
2017-12-16T03:12:35.785Z,97.90
2017-12-16T03:15:04.063Z,97.90
2017-12-16T03:17:32.307Z,97.90
2017-12-16T03:19:59.798Z,97.90
2017-12-16T03:22:28.058Z,97.80
2017-12-16T03:24:57.088Z,97.80
2017-12-16T03:27:24.628Z,97.80
2017-12-16T03:29:52.899Z,97.80
2017-12-16T03:32:21.161Z,97.80
2017-12-16T03:34:50.160Z,97.80
2017-12-16T03:37:17.734Z,97.80
2017-12-16T03:39:45.990Z,97.70
2017-12-16T03:42:13.488Z,97.70
2017-12-16T03:44:41.033Z,97.70
2017-12-16T03:47:09.292Z,97.70
2017-12-16T03:49:37.589Z,98.00
2017-12-16T03:52:05.083Z,97.80
2017-12-16T03:54:32.593Z,97.80
2017-12-16T03:57:00.868Z,97.80
2017-12-16T03:59:29.116Z,97.80
2017-12-16T04:01:56.612Z,97.80
2017-12-16T04:04:24.858Z,97.80
2017-12-16T04:06:52.345Z,97.80
2017-12-16T04:09:20.625Z,97.90
2017-12-16T04:11:48.108Z,97.90
2017-12-16T04:14:15.594Z,97.90
2017-12-16T04:16:43.115Z,97.90
2017-12-16T04:19:10.595Z,97.90
2017-12-16T04:21:38.080Z,97.80
2017-12-16T04:24:05.564Z,97.80
2017-12-16T04:26:33.813Z,97.80
2017-12-16T04:29:01.299Z,97.80
2017-12-16T04:31:29.564Z,97.80
2017-12-16T04:33:57.811Z,97.70
2017-12-16T04:36:25.309Z,97.70
2017-12-16T04:38:53.554Z,97.60
2017-12-16T04:41:21.142Z,97.60
2017-12-16T04:43:49.393Z,97.60
2017-12-16T04:46:16.881Z,97.60
2017-12-16T04:48:45.124Z,97.60
2017-12-16T04:51:12.621Z,97.60
2017-12-16T04:53:40.162Z,97.60
2017-12-16T04:56:08.443Z,97.60
2017-12-16T04:58:36.681Z,97.60
2017-12-16T05:01:04.181Z,97.60
2017-12-16T05:03:32.435Z,97.70
2017-12-16T05:06:00.016Z,97.60
2017-12-16T05:08:28.295Z,97.60
2017-12-16T05:10:56.553Z,97.60
2017-12-16T05:13:24.849Z,97.60
2017-12-16T05:15:52.406Z,97.60
2017-12-16T05:18:20.675Z,97.60
2017-12-16T05:20:48.932Z,97.50
2017-12-16T05:23:16.415Z,97.50
2017-12-16T05:25:44.674Z,97.60
2017-12-16T05:28:12.961Z,97.50
2017-12-16T05:30:41.255Z,97.50
2017-12-16T05:33:08.743Z,97.50
2017-12-16T05:35:36.231Z,97.50
2017-12-16T05:38:03.741Z,97.40
2017-12-16T05:40:31.239Z,97.50
2017-12-16T05:42:58.723Z,97.40
2017-12-16T05:45:26.990Z,97.50
2017-12-16T05:47:54.470Z,97.40
2017-12-16T05:50:22.729Z,97.50
2017-12-16T05:52:50.224Z,97.40
2017-12-16T05:55:17.753Z,97.50
2017-12-16T05:57:46.439Z,97.60
2017-12-16T06:00:14.780Z,97.70
2017-12-16T06:02:42.413Z,97.70
2017-12-16T06:05:10.051Z,97.70
2017-12-16T06:07:37.647Z,97.60
2017-12-16T06:10:05.154Z,97.70
2017-12-16T06:12:33.446Z,97.70
2017-12-16T06:15:01.710Z,97.70
2017-12-16T06:17:29.963Z,97.70
2017-12-16T06:19:57.542Z,97.70
2017-12-16T06:22:25.835Z,98.00
2017-12-16T06:24:54.080Z,97.70
2017-12-16T06:27:21.578Z,97.60
2017-12-16T06:29:49.119Z,97.50
2017-12-16T06:32:17.392Z,97.60
2017-12-16T06:34:45.654Z,97.60
2017-12-16T06:37:13.909Z,97.70
2017-12-16T06:39:41.392Z,97.70
2017-12-16T06:42:09.652Z,97.60
2017-12-16T06:44:37.129Z,97.60
2017-12-16T06:47:04.618Z,97.70
2017-12-16T06:49:32.102Z,97.70
2017-12-16T06:51:59.598Z,97.60
2017-12-16T06:54:27.081Z,97.60
2017-12-16T06:56:55.340Z,97.50
2017-12-16T06:59:23.593Z,97.30
2017-12-16T07:01:51.080Z,97.40
2017-12-16T07:04:19.329Z,97.60
2017-12-16T07:06:46.827Z,97.60
2017-12-16T07:09:14.312Z,97.50
2017-12-16T07:11:41.799Z,97.50
2017-12-16T07:14:09.324Z,97.50
2017-12-16T07:16:37.566Z,97.60
2017-12-16T07:19:05.824Z,97.40
2017-12-16T07:21:33.331Z,97.40
2017-12-16T07:24:00.813Z,97.40
2017-12-16T07:26:28.395Z,97.40
2017-12-16T07:28:55.875Z,97.40
2017-12-16T07:31:24.183Z,97.40
2017-12-16T07:33:51.769Z,97.40
2017-12-16T07:36:19.387Z,97.30
2017-12-16T07:38:46.959Z,97.40
2017-12-16T07:41:14.466Z,97.40
2017-12-16T07:43:41.961Z,97.30
2017-12-16T07:46:09.511Z,97.30
2017-12-16T07:48:37.791Z,97.30
2017-12-16T07:51:06.092Z,97.40
2017-12-16T07:53:33.579Z,97.40
2017-12-16T07:56:01.082Z,97.30
2017-12-16T07:58:29.342Z,97.10
2017-12-16T08:00:56.941Z,97.20
2017-12-16T08:03:24.535Z,97.20
2017-12-16T08:05:52.144Z,97.10
2017-12-16T08:08:19.723Z,97.20
2017-12-16T08:10:47.228Z,97.20
2017-12-16T08:13:14.812Z,97.20
2017-12-16T08:15:43.100Z,97.30
2017-12-16T08:18:10.591Z,97.30
2017-12-16T08:20:38.111Z,97.30
2017-12-16T08:23:05.628Z,97.30
2017-12-16T08:25:33.144Z,97.30
2017-12-16T08:28:00.635Z,97.20
2017-12-16T08:30:28.122Z,97.00
2017-12-16T08:32:55.699Z,97.00
2017-12-16T08:35:23.972Z,97.00
2017-12-16T08:37:52.282Z,97.00
2017-12-16T08:40:19.771Z,96.90
2017-12-16T08:42:47.266Z,96.80
2017-12-16T08:45:15.634Z,96.70
2017-12-16T08:47:43.111Z,96.70
2017-12-16T08:50:11.485Z,96.70
2017-12-16T08:52:39.763Z,96.70
2017-12-16T08:55:08.018Z,96.70
2017-12-16T08:57:35.598Z,96.70
2017-12-16T09:00:03.876Z,96.70
2017-12-16T09:02:32.141Z,96.80
2017-12-16T09:05:00.447Z,96.80
2017-12-16T09:07:28.003Z,96.80
2017-12-16T09:09:55.495Z,96.70
2017-12-16T09:12:22.998Z,96.70
2017-12-16T09:14:51.257Z,96.70
2017-12-16T09:17:18.839Z,96.70
2017-12-16T09:19:47.134Z,96.40
2017-12-16T09:22:14.634Z,96.40
2017-12-16T09:24:42.126Z,96.50
2017-12-16T09:27:10.379Z,96.50
2017-12-16T09:29:37.871Z,96.50
2017-12-16T09:32:05.372Z,96.30
2017-12-16T09:34:32.905Z,96.40
2017-12-16T09:37:01.130Z,96.30
2017-12-16T09:39:28.613Z,96.30
2017-12-16T09:41:56.877Z,95.40
2017-12-16T09:44:25.127Z,95.90
2017-12-16T09:46:52.622Z,95.90
2017-12-16T09:49:20.870Z,95.60
2017-12-16T09:51:48.381Z,95.60
2017-12-16T09:54:15.860Z,95.80
2017-12-16T09:56:43.377Z,95.90
2017-12-16T09:59:11.656Z,95.90
2017-12-16T10:01:40.030Z,96.00
2017-12-16T10:04:08.274Z,96.10
2017-12-16T10:06:38.770Z,96.10
2017-12-16T10:09:07.117Z,96.00
2017-12-16T10:11:34.910Z,96.10
2017-12-16T10:14:02.471Z,96.00
2017-12-16T10:16:29.980Z,95.90
2017-12-16T10:18:57.463Z,96.00
2017-12-16T10:21:25.047Z,95.90
2017-12-16T10:23:52.573Z,95.20
2017-12-16T10:26:20.080Z,95.00
2017-12-16T10:28:47.587Z,95.10
2017-12-16T10:31:15.868Z,95.50
2017-12-16T10:33:44.138Z,94.90
2017-12-16T10:36:12.418Z,94.90
2017-12-16T10:38:40.678Z,95.10
2017-12-16T10:41:08.178Z,95.30
2017-12-16T10:43:35.664Z,95.20
2017-12-16T10:46:03.167Z,94.80
2017-12-16T10:48:31.443Z,94.90
2017-12-16T10:50:59.720Z,95.10
2017-12-16T10:53:28.002Z,95.30
2017-12-16T10:55:56.263Z,95.40
2017-12-16T10:58:24.545Z,95.30
2017-12-16T11:00:54.772Z,95.50
2017-12-16T11:03:23.031Z,95.50
2017-12-16T11:05:50.604Z,95.40
2017-12-16T11:08:18.908Z,95.60
2017-12-16T11:10:46.395Z,95.30
2017-12-16T11:13:13.910Z,95.00
2017-12-16T11:15:41.404Z,94.80
2017-12-16T11:18:08.895Z,94.80
2017-12-16T11:20:36.533Z,95.00
2017-12-16T11:23:04.027Z,95.10
2017-12-16T11:25:32.278Z,95.30
2017-12-16T11:27:59.765Z,95.00
2017-12-16T11:30:28.035Z,95.20
2017-12-16T11:32:56.324Z,94.80
2017-12-16T11:35:24.610Z,94.90
2017-12-16T11:37:52.167Z,94.90
2017-12-16T11:40:19.725Z,94.90
2017-12-16T11:42:47.998Z,94.50
2017-12-16T11:45:16.275Z,94.60
2017-12-16T11:47:44.528Z,94.00
2017-12-16T11:50:12.033Z,94.00
2017-12-16T11:52:39.520Z,92.90
2017-12-16T11:55:07.019Z,92.30
2017-12-16T11:57:35.290Z,92.20
2017-12-16T12:00:02.771Z,92.20
2017-12-16T12:02:30.259Z,92.50
2017-12-16T12:04:57.776Z,92.80
2017-12-16T12:07:26.035Z,92.80
2017-12-16T12:09:53.610Z,92.80
2017-12-16T12:12:21.875Z,93.20
2017-12-16T12:14:50.146Z,93.40
2017-12-16T12:17:18.408Z,93.60
2017-12-16T12:19:45.938Z,93.60
2017-12-16T12:22:13.442Z,93.70
2017-12-16T12:24:41.017Z,93.80
2017-12-16T12:27:09.303Z,93.00
2017-12-16T12:29:36.866Z,93.00
2017-12-16T12:32:04.388Z,93.00
2017-12-16T12:34:31.945Z,93.30
2017-12-16T12:36:59.452Z,93.30
2017-12-16T12:39:26.936Z,93.80
2017-12-16T12:41:54.450Z,93.90
2017-12-16T12:44:21.944Z,94.10
2017-12-16T12:46:49.455Z,94.20
2017-12-16T12:49:17.992Z,94.30
2017-12-16T12:51:46.257Z,94.20
2017-12-16T12:54:13.744Z,94.20
2017-12-16T12:56:41.266Z,94.30
2017-12-16T12:59:08.748Z,94.40
2017-12-16T13:01:36.240Z,94.50
2017-12-16T13:04:04.496Z,94.90
2017-12-16T13:06:31.999Z,94.90
2017-12-16T13:08:59.553Z,94.50
2017-12-16T13:11:27.059Z,94.60
2017-12-16T13:13:54.550Z,94.70
2017-12-16T13:16:22.827Z,94.80
2017-12-16T13:18:51.075Z,94.90
2017-12-16T13:21:18.584Z,94.80
2017-12-16T13:23:46.111Z,94.90
2017-12-16T13:26:13.693Z,95.00
2017-12-16T13:28:41.939Z,95.00
2017-12-16T13:31:09.532Z,95.00
2017-12-16T13:33:37.098Z,95.20
2017-12-16T13:36:04.619Z,95.20
2017-12-16T13:38:32.107Z,95.30
2017-12-16T13:40:59.607Z,95.20
2017-12-16T13:43:27.161Z,95.40
2017-12-16T13:45:54.688Z,95.60
2017-12-16T13:48:22.166Z,95.60
2017-12-16T13:50:49.700Z,95.60
2017-12-16T13:53:17.976Z,95.90
2017-12-16T13:55:46.252Z,96.00
2017-12-16T13:58:13.756Z,96.00
2017-12-16T14:00:41.261Z,95.90
2017-12-16T14:03:09.528Z,96.10
2017-12-16T14:05:37.782Z,96.20
2017-12-16T14:08:05.384Z,96.30
2017-12-16T14:10:33.755Z,96.60
2017-12-16T14:13:02.011Z,96.70
2017-12-16T14:15:29.599Z,96.70
2017-12-16T14:17:57.158Z,96.80
2017-12-16T14:20:25.440Z,96.90
2017-12-16T14:22:52.925Z,96.80
2017-12-16T14:25:20.423Z,96.80
2017-12-16T14:27:48.003Z,96.80
2017-12-16T14:30:16.298Z,96.90
2017-12-16T14:32:43.781Z,96.90
2017-12-16T14:35:11.334Z,97.00
2017-12-16T14:37:42.130Z,97.00
2017-12-16T14:40:10.384Z,97.00
2017-12-16T14:42:37.871Z,97.00
2017-12-16T14:45:05.383Z,96.90
2017-12-16T14:47:32.872Z,96.90
2017-12-16T14:50:00.379Z,96.80
2017-12-16T14:52:27.896Z,96.70
2017-12-16T14:54:56.175Z,96.10
2017-12-16T14:57:24.434Z,96.10
2017-12-16T14:59:52.056Z,96.10
2017-12-16T15:02:19.547Z,96.20
2017-12-16T15:04:47.130Z,96.30
2017-12-16T15:07:15.398Z,96.30
2017-12-16T15:09:43.652Z,96.20
2017-12-16T15:12:11.245Z,96.20
2017-12-16T15:14:39.893Z,95.50
2017-12-16T15:17:08.823Z,95.50
2017-12-16T15:19:36.499Z,95.50
2017-12-16T15:22:04.040Z,95.10
2017-12-16T15:24:32.293Z,95.10
2017-12-16T15:26:59.798Z,95.10
2017-12-16T15:29:27.300Z,95.10
2017-12-16T15:31:54.814Z,95.00
2017-12-16T15:34:22.298Z,95.00
2017-12-16T15:36:49.833Z,95.00
2017-12-16T15:39:17.375Z,95.10
2017-12-16T15:41:45.639Z,95.10
2017-12-16T15:44:14.011Z,95.00
2017-12-16T15:46:42.303Z,95.40
2017-12-16T15:49:10.575Z,95.20
2017-12-16T15:51:38.952Z,95.40
2017-12-16T15:54:07.959Z,95.50
2017-12-16T15:56:35.455Z,95.50
2017-12-16T15:59:02.986Z,95.60
2017-12-16T16:01:30.520Z,95.70
2017-12-16T16:03:58.209Z,95.70
2017-12-16T16:06:25.811Z,95.80
2017-12-16T16:08:53.367Z,95.90
2017-12-16T16:11:21.877Z,96.00
2017-12-16T16:13:50.234Z,96.10
2017-12-16T16:16:18.004Z,96.10
2017-12-16T16:18:45.647Z,96.10
2017-12-16T16:21:13.272Z,96.20
2017-12-16T16:23:40.826Z,96.30
2017-12-16T16:26:08.332Z,96.40
2017-12-16T16:28:35.830Z,96.50
2017-12-16T16:31:04.160Z,96.70
2017-12-16T16:33:31.657Z,96.70
2017-12-16T16:36:00.111Z,96.90
2017-12-16T16:38:27.607Z,96.80
2017-12-16T16:40:55.935Z,97.10
2017-12-16T16:43:23.494Z,97.10
2017-12-16T16:45:51.163Z,97.20
2017-12-16T16:48:18.819Z,97.10
2017-12-16T16:50:46.430Z,97.10
2017-12-16T16:53:14.799Z,97.20
2017-12-16T16:55:43.065Z,97.20
2017-12-16T16:58:11.336Z,97.30
2017-12-16T17:00:39.600Z,97.20
2017-12-16T17:03:07.204Z,97.20
2017-12-16T17:05:34.768Z,97.30
2017-12-16T17:08:02.455Z,97.40
2017-12-16T17:10:29.998Z,97.40
2017-12-16T17:12:57.498Z,97.40
2017-12-16T17:15:25.099Z,97.40
2017-12-16T17:17:53.361Z,97.50
2017-12-16T17:20:21.637Z,97.50
2017-12-16T17:22:49.945Z,97.50
2017-12-16T17:25:17.994Z,97.50
2017-12-16T17:27:46.271Z,97.40
2017-12-16T17:30:14.540Z,97.40
2017-12-16T17:32:42.828Z,97.40
2017-12-16T17:35:11.164Z,97.40
2017-12-16T17:37:38.691Z,97.40
2017-12-16T17:40:06.233Z,97.40
2017-12-16T17:42:33.741Z,97.40
2017-12-16T17:45:01.232Z,97.40
2017-12-16T17:47:29.646Z,97.50
2017-12-16T17:49:57.177Z,97.50
2017-12-16T17:52:25.439Z,97.40
2017-12-16T17:54:52.944Z,97.40
2017-12-16T17:57:20.444Z,97.40
2017-12-16T17:59:48.697Z,97.30
2017-12-16T18:02:16.214Z,97.20
2017-12-16T18:04:43.714Z,97.20
2017-12-16T18:07:11.213Z,97.20
2017-12-16T18:09:39.546Z,97.30
2017-12-16T18:12:07.035Z,97.20
2017-12-16T18:14:35.322Z,97.30
2017-12-16T18:17:03.634Z,97.30
2017-12-16T18:19:31.118Z,97.30
2017-12-16T18:21:58.610Z,97.40
2017-12-16T18:24:26.905Z,97.40
2017-12-16T18:26:54.405Z,97.40
2017-12-16T18:29:21.923Z,97.50
2017-12-16T18:31:49.477Z,97.50
2017-12-16T18:34:17.727Z,97.40
2017-12-16T18:36:45.235Z,97.40
2017-12-16T18:39:12.976Z,97.50
2017-12-16T18:41:41.318Z,97.30
2017-12-16T18:44:08.812Z,97.70
2017-12-16T18:46:37.079Z,97.40
2017-12-16T18:49:05.344Z,97.40
2017-12-16T18:51:33.024Z,97.40
2017-12-16T18:54:01.275Z,97.20
2017-12-16T18:56:29.575Z,97.40
2017-12-16T18:58:57.074Z,97.40
2017-12-16T19:01:24.566Z,97.30
2017-12-16T19:03:52.050Z,97.30
2017-12-16T19:06:20.425Z,97.40
2017-12-16T19:08:48.735Z,97.50
2017-12-16T19:11:16.269Z,97.50
2017-12-16T19:13:44.530Z,97.60
2017-12-16T19:16:12.109Z,97.60
2017-12-16T19:18:39.598Z,97.60
2017-12-16T19:21:07.277Z,97.70
2017-12-16T19:23:34.771Z,98.10
2017-12-16T19:26:03.054Z,97.80
2017-12-16T19:28:31.303Z,97.70
2017-12-16T19:30:58.806Z,97.70
2017-12-16T19:33:26.290Z,97.50
2017-12-16T19:35:53.796Z,97.60
2017-12-16T19:38:22.058Z,97.50
2017-12-16T19:40:49.576Z,97.50
2017-12-16T19:43:17.104Z,97.50
2017-12-16T19:45:45.390Z,97.50
2017-12-16T19:48:12.943Z,97.50
2017-12-16T19:50:41.224Z,97.60
2017-12-16T19:53:08.784Z,97.60
2017-12-16T19:55:36.704Z,97.60
2017-12-16T19:58:05.009Z,97.60
2017-12-16T20:00:32.506Z,97.50
2017-12-16T20:03:00.037Z,97.60
2017-12-16T20:05:28.306Z,97.60
2017-12-16T20:07:56.562Z,97.50
2017-12-16T20:10:24.068Z,97.60
2017-12-16T20:12:51.549Z,97.60
2017-12-16T20:15:19.070Z,97.60
2017-12-16T20:17:46.556Z,97.70
2017-12-16T20:20:14.065Z,97.70
2017-12-16T20:22:41.639Z,97.70
2017-12-16T20:25:09.903Z,97.80
2017-12-16T20:27:38.226Z,97.80
2017-12-16T20:30:05.743Z,97.80
2017-12-16T20:32:34.000Z,97.80
2017-12-16T20:35:01.539Z,97.80
2017-12-16T20:37:29.036Z,97.80
2017-12-16T20:39:57.287Z,97.90
2017-12-16T20:42:24.791Z,97.90
2017-12-16T20:44:52.294Z,97.80
2017-12-16T20:47:19.803Z,97.80
2017-12-16T20:49:48.066Z,97.90
2017-12-16T20:52:16.340Z,97.90
2017-12-16T20:54:44.627Z,98.20
2017-12-16T20:57:12.187Z,97.90
2017-12-16T20:59:39.695Z,97.90
2017-12-16T21:02:07.673Z,97.90
2017-12-16T21:04:35.183Z,97.90
2017-12-16T21:07:02.682Z,98.00
2017-12-16T21:09:30.203Z,97.90
2017-12-16T21:11:59.307Z,97.90
2017-12-16T21:14:26.823Z,97.90
2017-12-16T21:16:55.092Z,98.00
2017-12-16T21:19:22.576Z,98.00
2017-12-16T21:21:50.840Z,97.90
2017-12-16T21:24:19.098Z,98.10
2017-12-16T21:26:46.599Z,97.80
2017-12-16T21:29:14.080Z,97.80
2017-12-16T21:31:41.614Z,97.80
2017-12-16T21:34:09.165Z,97.80
2017-12-16T21:36:37.436Z,97.80
2017-12-16T21:39:06.153Z,97.90
2017-12-16T21:41:33.684Z,97.90
2017-12-16T21:44:01.992Z,97.80
2017-12-16T21:46:29.510Z,97.80
2017-12-16T21:48:57.809Z,97.80
2017-12-16T21:51:25.351Z,97.80
2017-12-16T21:53:53.624Z,97.90
2017-12-16T21:56:21.904Z,97.90
2017-12-16T21:58:50.165Z,97.90
2017-12-16T22:01:17.668Z,97.90
2017-12-16T22:03:45.175Z,97.90
2017-12-16T22:06:12.679Z,97.90
2017-12-16T22:08:40.161Z,97.90
2017-12-16T22:11:07.651Z,97.80
2017-12-16T22:13:35.140Z,97.80
2017-12-16T22:16:02.796Z,97.80
2017-12-16T22:18:31.054Z,97.70
2017-12-16T22:20:58.548Z,97.70
2017-12-16T22:23:26.051Z,97.80
2017-12-16T22:25:53.584Z,98.00
2017-12-16T22:28:21.064Z,97.80
2017-12-16T22:30:48.664Z,97.80
2017-12-16T22:33:16.945Z,97.80
2017-12-16T22:35:44.455Z,97.80
2017-12-16T22:38:12.063Z,97.80
2017-12-16T22:40:39.556Z,97.70
2017-12-16T22:43:07.113Z,97.70
2017-12-16T22:45:35.552Z,97.70
2017-12-16T22:48:03.041Z,97.60
2017-12-16T22:50:30.530Z,97.70
2017-12-16T22:52:58.136Z,97.60
2017-12-16T22:55:26.510Z,97.60
2017-12-16T22:57:54.770Z,97.60
2017-12-16T23:00:22.274Z,97.60
2017-12-16T23:02:49.767Z,97.60
2017-12-16T23:05:17.263Z,97.60
2017-12-16T23:07:45.576Z,97.60
2017-12-16T23:10:13.099Z,97.60
2017-12-16T23:12:41.371Z,97.60
2017-12-16T23:15:09.646Z,97.60
2017-12-16T23:17:37.904Z,97.50
2017-12-16T23:20:05.390Z,97.50
2017-12-16T23:22:33.654Z,98.10
2017-12-16T23:25:01.936Z,99.70
2017-12-16T23:27:30.204Z,97.60
2017-12-16T23:29:58.495Z,97.40
2017-12-16T23:32:26.887Z,97.50
2017-12-16T23:34:54.443Z,97.50
2017-12-16T23:37:21.992Z,97.40
2017-12-16T23:39:50.242Z,97.50
2017-12-16T23:42:17.827Z,97.50
2017-12-16T23:44:46.096Z,97.60
2017-12-16T23:47:14.374Z,97.50
2017-12-16T23:49:42.631Z,97.50
2017-12-16T23:52:10.217Z,97.50
2017-12-16T23:54:38.493Z,97.60
2017-12-16T23:57:06.797Z,97.60
2017-12-16T23:59:34.278Z,97.60
